Rhuthun, United Kingdom
Current Conditions -  °F | °C
As of 3:20 PM on Monday 22 Dec 2014 (Local Time) from EGNR Reporting Station
Rain Showers Rain Showers  
Wind Chill: 57°   Ceiling: Unl
Heat Index: 57°   Visibility: 6mi
Dew Point: 50°   Wind: 22mph
Humidity: 77%   Direction: 250°WSW
Pressure: 29.83"   Gusts: 35mph
Location:  53.11°N, 3.32°W
Report Text: EGNR 221520Z 25019G30KT 9999 VCSH FEW015 SCT025 14/10 Q1010
Loading
Personal Weather Stations






























Interactive Weather Map New forecast layout! Learn more

10-Day Weather Forecast

Advertisements
Track Severe Weather on mobile